createdAt,value
2022-11-22T00:00:49.421Z,835.25
2022-11-22T00:01:49.425Z,835.27
2022-11-22T00:02:49.430Z,835.21
2022-11-22T00:03:49.372Z,835.18
2022-11-22T00:04:49.366Z,835.18
2022-11-22T00:05:49.362Z,835.15
2022-11-22T00:06:49.335Z,835.15
2022-11-22T00:07:49.425Z,835.09
2022-11-22T00:08:49.325Z,835.06
2022-11-22T00:09:49.305Z,835.08
2022-11-22T00:10:49.309Z,835.04
2022-11-22T00:11:49.284Z,834.97
2022-11-22T00:12:49.276Z,834.97
2022-11-22T00:13:49.319Z,834.97
2022-11-22T00:14:53.934Z,834.98
2022-11-22T00:15:50.254Z,834.96
2022-11-22T00:16:49.232Z,834.96
2022-11-22T00:17:49.216Z,834.93
2022-11-22T00:18:49.206Z,834.91
2022-11-22T00:19:49.273Z,834.88
2022-11-22T00:20:49.196Z,834.81
2022-11-22T00:21:49.179Z,834.80
2022-11-22T00:22:49.171Z,834.72
2022-11-22T00:23:49.178Z,834.71
2022-11-22T00:24:49.144Z,834.71
2022-11-22T00:25:49.136Z,834.66
2022-11-22T00:26:49.132Z,834.66
2022-11-22T00:27:49.128Z,834.64
2022-11-22T00:28:49.107Z,834.66
2022-11-22T00:29:49.094Z,834.61
2022-11-22T00:30:49.079Z,834.60
2022-11-22T00:31:49.155Z,834.65
2022-11-22T00:32:49.095Z,834.65
2022-11-22T00:33:49.048Z,834.66
2022-11-22T00:34:49.059Z,834.68
2022-11-22T00:35:49.034Z,834.66
2022-11-22T00:36:49.020Z,834.67
2022-11-22T00:37:49.103Z,834.60
2022-11-22T00:38:49.002Z,834.63
2022-11-22T00:39:49.005Z,834.61
2022-11-22T00:40:48.971Z,834.54
2022-11-22T00:41:48.960Z,834.56
2022-11-22T00:42:48.951Z,834.49
2022-11-22T00:43:48.990Z,834.47
2022-11-22T00:44:48.928Z,834.45
2022-11-22T00:45:48.944Z,834.43
2022-11-22T00:46:48.908Z,834.44
2022-11-22T00:47:48.898Z,834.42
2022-11-22T00:48:48.885Z,834.41
2022-11-22T00:49:49.044Z,834.35
2022-11-22T00:50:48.867Z,834.38
2022-11-22T00:51:48.855Z,834.31
2022-11-22T00:52:48.845Z,834.32
2022-11-22T00:53:48.834Z,834.30
2022-11-22T00:54:54.466Z,834.31
2022-11-22T00:55:49.907Z,834.32
2022-11-22T00:56:48.800Z,834.36
2022-11-22T00:57:48.789Z,834.37
2022-11-22T00:58:48.777Z,834.40
2022-11-22T00:59:48.875Z,834.41
2022-11-22T01:00:53.406Z,834.38
2022-11-22T01:01:49.798Z,834.39
2022-11-22T01:02:48.736Z,834.38
2022-11-22T01:03:48.720Z,834.39
2022-11-22T01:04:48.713Z,834.41
2022-11-22T01:05:48.711Z,834.43
2022-11-22T01:06:48.691Z,834.36
2022-11-22T01:07:48.787Z,834.28
2022-11-22T01:08:48.668Z,834.29
2022-11-22T01:09:48.663Z,834.23
2022-11-22T01:10:48.652Z,834.25
2022-11-22T01:11:48.680Z,834.24
2022-11-22T01:12:48.625Z,834.19
2022-11-22T01:13:48.622Z,834.23
2022-11-22T01:14:48.605Z,834.22
2022-11-22T01:15:48.595Z,834.28
2022-11-22T01:16:48.581Z,834.26
2022-11-22T01:17:48.585Z,834.27
2022-11-22T01:18:48.559Z,834.27
2022-11-22T01:19:48.615Z,834.29
2022-11-22T01:20:48.538Z,834.28
2022-11-22T01:21:48.532Z,834.24
2022-11-22T01:22:48.528Z,834.21
2022-11-22T01:23:48.504Z,834.18
2022-11-22T01:24:48.496Z,834.11
2022-11-22T01:25:48.511Z,834.10
2022-11-22T01:26:48.470Z,834.07
2022-11-22T01:27:48.501Z,834.12
2022-11-22T01:28:48.457Z,834.03
2022-11-22T01:29:48.445Z,834.05
2022-11-22T01:30:48.446Z,834.09
2022-11-22T01:31:48.488Z,834.08
2022-11-22T01:32:48.417Z,834.07
2022-11-22T01:33:48.398Z,834.18
2022-11-22T01:34:48.385Z,834.15
2022-11-22T01:35:48.437Z,834.17
2022-11-22T01:36:48.372Z,834.21
2022-11-22T01:37:48.367Z,834.16
2022-11-22T01:38:48.411Z,834.17
2022-11-22T01:39:48.332Z,834.23
2022-11-22T01:40:48.324Z,834.23
2022-11-22T01:41:48.311Z,834.18
2022-11-22T01:42:48.316Z,834.15
2022-11-22T01:43:48.379Z,834.16
2022-11-22T01:44:48.279Z,834.17
2022-11-22T01:45:48.269Z,834.18
2022-11-22T01:46:48.258Z,834.18
2022-11-22T01:47:48.259Z,834.10
2022-11-22T01:48:48.237Z,834.15
2022-11-22T01:49:48.280Z,834.09
2022-11-22T01:50:48.219Z,834.10
2022-11-22T01:51:48.210Z,834.10
2022-11-22T01:52:48.194Z,834.05
2022-11-22T01:53:48.194Z,834.07
2022-11-22T01:54:48.182Z,834.09
2022-11-22T01:55:48.198Z,834.09
2022-11-22T01:56:48.155Z,834.09
2022-11-22T01:57:48.138Z,834.08
2022-11-22T01:58:48.126Z,834.07
2022-11-22T01:59:48.316Z,834.14
2022-11-22T02:00:48.173Z,834.16
2022-11-22T02:01:48.098Z,834.15
2022-11-22T02:02:48.084Z,834.18
2022-11-22T02:03:48.075Z,834.19
2022-11-22T02:04:48.063Z,834.15
2022-11-22T02:05:48.067Z,834.15
2022-11-22T02:06:48.039Z,834.10
2022-11-22T02:07:48.144Z,834.08
2022-11-22T02:08:48.039Z,834.08
2022-11-22T02:09:48.025Z,834.09
2022-11-22T02:10:48.008Z,834.04
2022-11-22T02:11:47.997Z,834.04
2022-11-22T02:12:47.978Z,834.05
2022-11-22T02:13:48.072Z,834.04
2022-11-22T02:14:47.957Z,834.03
2022-11-22T02:15:47.966Z,834.01
2022-11-22T02:16:47.935Z,834.06
2022-11-22T02:17:47.943Z,834.09
2022-11-22T02:18:47.910Z,834.09
2022-11-22T02:19:47.951Z,834.10
2022-11-22T02:20:47.890Z,834.06
2022-11-22T02:21:47.875Z,834.03
2022-11-22T02:22:47.872Z,834.00
2022-11-22T02:23:47.862Z,833.96
2022-11-22T02:24:47.844Z,833.97
2022-11-22T02:25:47.895Z,833.97
2022-11-22T02:26:47.819Z,833.99
2022-11-22T02:27:47.821Z,834.01
2022-11-22T02:28:47.802Z,834.04
2022-11-22T02:29:47.793Z,834.09
2022-11-22T02:30:47.783Z,834.02
2022-11-22T02:31:47.823Z,834.04
2022-11-22T02:32:47.766Z,834.02
2022-11-22T02:33:47.752Z,834.06
2022-11-22T02:34:47.732Z,834.05
2022-11-22T02:35:47.727Z,834.08
2022-11-22T02:36:47.727Z,834.06
2022-11-22T02:37:47.710Z,834.09
2022-11-22T02:38:47.705Z,834.11
2022-11-22T02:39:47.685Z,834.12
2022-11-22T02:40:47.670Z,834.15
2022-11-22T02:41:47.688Z,834.19
2022-11-22T02:42:47.659Z,834.19
2022-11-22T02:43:47.649Z,834.20
2022-11-22T02:44:47.626Z,834.20
2022-11-22T02:45:47.621Z,834.19
2022-11-22T02:46:47.611Z,834.16
2022-11-22T02:47:47.633Z,834.10
2022-11-22T02:48:47.593Z,834.17
2022-11-22T02:49:47.627Z,834.16
2022-11-22T02:50:47.561Z,834.19
2022-11-22T02:51:47.560Z,834.19
2022-11-22T02:52:47.565Z,834.19
2022-11-22T02:53:47.528Z,834.15
2022-11-22T02:54:47.518Z,834.15
2022-11-22T02:55:47.516Z,834.14
2022-11-22T02:56:47.497Z,834.13
2022-11-22T02:57:47.487Z,834.20
2022-11-22T02:58:47.486Z,834.16
2022-11-22T02:59:47.464Z,834.18
2022-11-22T03:00:47.500Z,834.23
2022-11-22T03:01:47.502Z,834.22
2022-11-22T03:02:47.432Z,834.23
2022-11-22T03:03:47.456Z,834.24
2022-11-22T03:04:47.410Z,834.24
2022-11-22T03:05:47.400Z,834.27
2022-11-22T03:06:47.387Z,834.25
2022-11-22T03:07:47.515Z,834.25
2022-11-22T03:08:50.762Z,834.21
2022-11-22T03:09:48.352Z,834.22
2022-11-22T03:10:47.344Z,834.25
2022-11-22T03:11:47.356Z,834.28
2022-11-22T03:12:47.323Z,834.24
2022-11-22T03:13:47.318Z,834.23
2022-11-22T03:14:47.311Z,834.25
2022-11-22T03:15:47.295Z,834.25
2022-11-22T03:16:47.276Z,834.24
2022-11-22T03:17:47.279Z,834.25
2022-11-22T03:18:47.254Z,834.24
2022-11-22T03:19:47.278Z,834.20
2022-11-22T03:20:47.247Z,834.25
2022-11-22T03:21:47.230Z,834.22
2022-11-22T03:22:47.214Z,834.24
2022-11-22T03:23:47.208Z,834.26
2022-11-22T03:24:47.211Z,834.30
2022-11-22T03:25:47.212Z,834.24
2022-11-22T03:26:47.174Z,834.26
2022-11-22T03:27:47.160Z,834.27
2022-11-22T03:28:47.146Z,834.26
2022-11-22T03:29:47.137Z,834.29
2022-11-22T03:30:47.141Z,834.29
2022-11-22T03:31:47.179Z,834.24
2022-11-22T03:32:47.101Z,834.27
2022-11-22T03:33:47.113Z,834.24
2022-11-22T03:34:47.085Z,834.21
2022-11-22T03:35:47.101Z,834.23
2022-11-22T03:36:47.081Z,834.25
2022-11-22T03:37:47.059Z,834.25
2022-11-22T03:38:47.046Z,834.28
2022-11-22T03:39:47.027Z,834.26
2022-11-22T03:40:47.020Z,834.22
2022-11-22T03:41:47.010Z,834.24
2022-11-22T03:42:47.011Z,834.21
2022-11-22T03:43:47.043Z,834.20
2022-11-22T03:44:46.977Z,834.17
2022-11-22T03:45:46.980Z,834.19
2022-11-22T03:46:46.963Z,834.18
2022-11-22T03:47:46.951Z,834.15
2022-11-22T03:48:46.944Z,834.19
2022-11-22T03:49:46.985Z,834.15
2022-11-22T03:50:46.911Z,834.17
2022-11-22T03:51:46.925Z,834.18
2022-11-22T03:52:46.895Z,834.15
2022-11-22T03:53:46.879Z,834.18
2022-11-22T03:54:46.865Z,834.15
2022-11-22T03:55:46.883Z,834.12
2022-11-22T03:56:46.934Z,834.08
2022-11-22T03:57:46.833Z,834.13
2022-11-22T03:58:46.823Z,834.08
2022-11-22T03:59:46.812Z,834.10
2022-11-22T04:00:46.804Z,834.10
2022-11-22T04:01:46.903Z,834.09
2022-11-22T04:02:46.797Z,834.06
2022-11-22T04:03:46.981Z,834.11
2022-11-22T04:04:46.761Z,834.05
2022-11-22T04:05:46.751Z,834.08
2022-11-22T04:06:46.751Z,834.06
2022-11-22T04:07:46.852Z,834.02
2022-11-22T04:08:46.825Z,834.00
2022-11-22T04:09:46.708Z,834.04
2022-11-22T04:10:46.695Z,833.99
2022-11-22T04:11:46.703Z,833.99
2022-11-22T04:12:46.673Z,833.96
2022-11-22T04:13:46.710Z,833.96
2022-11-22T04:14:46.741Z,833.99
2022-11-22T04:15:46.642Z,834.02
2022-11-22T04:16:46.640Z,834.03
2022-11-22T04:17:46.615Z,834.01
2022-11-22T04:18:46.609Z,834.02
2022-11-22T04:19:46.683Z,834.02
2022-11-22T04:20:46.598Z,834.06
2022-11-22T04:21:46.573Z,834.02
2022-11-22T04:22:46.564Z,834.00
2022-11-22T04:23:46.581Z,833.97
2022-11-22T04:24:46.555Z,833.99
2022-11-22T04:25:46.593Z,834.00
2022-11-22T04:26:46.520Z,834.02
2022-11-22T04:27:46.514Z,833.96
2022-11-22T04:29:08.794Z,834.06
2022-11-22T04:29:47.501Z,834.05
2022-11-22T04:30:46.476Z,833.99
2022-11-22T04:31:46.515Z,833.96
2022-11-22T04:32:46.454Z,833.96
2022-11-22T04:33:46.455Z,833.94
2022-11-22T04:34:46.441Z,833.96
2022-11-22T04:35:46.426Z,833.96
2022-11-22T04:36:46.494Z,833.97
2022-11-22T04:37:46.420Z,833.95
2022-11-22T04:38:46.392Z,833.98
2022-11-22T04:39:46.404Z,833.97
2022-11-22T04:40:46.368Z,834.02
2022-11-22T04:41:46.410Z,834.01
2022-11-22T04:42:46.346Z,834.06
2022-11-22T04:43:46.344Z,834.06
2022-11-22T04:44:46.323Z,834.07
2022-11-22T04:45:46.317Z,834.05
2022-11-22T04:46:46.304Z,834.08
2022-11-22T04:47:50.318Z,834.07
2022-11-22T04:48:46.344Z,834.12
2022-11-22T04:49:46.299Z,834.13
2022-11-22T04:50:46.260Z,834.18
2022-11-22T04:51:46.251Z,834.21
2022-11-22T04:52:46.238Z,834.20
2022-11-22T04:53:46.467Z,834.22
2022-11-22T04:54:46.217Z,834.23
2022-11-22T04:55:46.237Z,834.20
2022-11-22T04:56:46.202Z,834.20
2022-11-22T04:57:46.192Z,834.17
2022-11-22T04:58:46.211Z,834.13
2022-11-22T04:59:46.258Z,834.10
2022-11-22T05:00:46.215Z,834.10
2022-11-22T05:01:46.146Z,834.13
2022-11-22T05:02:46.130Z,834.13
2022-11-22T05:03:46.118Z,834.10
2022-11-22T05:04:50.450Z,834.12
2022-11-22T05:05:46.179Z,834.11
2022-11-22T05:06:46.092Z,834.07
2022-11-22T05:07:46.140Z,834.06
2022-11-22T05:08:46.065Z,834.09
2022-11-22T05:09:46.059Z,834.06
2022-11-22T05:10:46.046Z,834.04
2022-11-22T05:11:46.107Z,834.05
2022-11-22T05:12:46.022Z,834.04
2022-11-22T05:13:46.017Z,834.05
2022-11-22T05:14:46.001Z,834.00
2022-11-22T05:15:46.002Z,834.08
2022-11-22T05:16:46.089Z,834.02
2022-11-22T05:17:46.011Z,834.06
2022-11-22T05:18:45.961Z,834.03
2022-11-22T05:19:49.173Z,834.09
2022-11-22T05:20:45.940Z,834.06
2022-11-22T05:21:45.927Z,834.08
2022-11-22T05:22:45.932Z,834.04
2022-11-22T05:23:45.987Z,834.03
2022-11-22T05:24:45.895Z,834.08
2022-11-22T05:25:45.886Z,834.02
2022-11-22T05:26:45.888Z,834.05
2022-11-22T05:27:45.891Z,834.08
2022-11-22T05:28:45.853Z,834.07
2022-11-22T05:29:45.891Z,834.10
2022-11-22T05:30:45.828Z,834.14
2022-11-22T05:31:51.175Z,834.18
2022-11-22T05:32:46.824Z,834.18
2022-11-22T05:33:45.799Z,834.19
2022-11-22T05:34:45.789Z,834.23
2022-11-22T05:35:45.883Z,834.29
2022-11-22T05:36:45.767Z,834.35
2022-11-22T05:37:45.753Z,834.37
2022-11-22T05:38:45.754Z,834.38
2022-11-22T05:39:45.728Z,834.39
2022-11-22T05:40:45.727Z,834.48
2022-11-22T05:41:45.768Z,834.45
2022-11-22T05:42:45.699Z,834.46
2022-11-22T05:43:45.728Z,834.47
2022-11-22T05:44:45.673Z,834.48
2022-11-22T05:45:45.665Z,834.55
2022-11-22T05:46:45.656Z,834.55
2022-11-22T05:47:45.739Z,834.59
2022-11-22T05:48:45.651Z,834.56
2022-11-22T05:49:45.618Z,834.61
2022-11-22T05:50:45.607Z,834.59
2022-11-22T05:51:45.598Z,834.62
2022-11-22T05:52:45.588Z,834.60
2022-11-22T05:53:45.663Z,834.65
2022-11-22T05:54:45.573Z,834.65
2022-11-22T05:55:45.553Z,834.61
2022-11-22T05:56:45.546Z,834.61
2022-11-22T05:57:45.529Z,834.68
2022-11-22T05:58:45.523Z,834.66
2022-11-22T05:59:45.546Z,834.64
2022-11-22T06:00:45.515Z,834.66
2022-11-22T06:01:45.548Z,834.63
2022-11-22T06:02:45.479Z,834.65
2022-11-22T06:03:45.464Z,834.68
2022-11-22T06:04:45.451Z,834.70
2022-11-22T06:05:45.465Z,834.76
2022-11-22T06:06:45.433Z,834.77
2022-11-22T06:07:45.532Z,834.79
2022-11-22T06:08:45.407Z,834.85
2022-11-22T06:09:45.398Z,834.79
2022-11-22T06:10:45.385Z,834.84
2022-11-22T06:11:45.460Z,834.79
2022-11-22T06:12:45.367Z,834.82
2022-11-22T06:13:45.352Z,834.86
2022-11-22T06:14:45.345Z,834.83
2022-11-22T06:15:45.362Z,834.84
2022-11-22T06:16:45.321Z,834.95
2022-11-22T06:17:45.435Z,834.95
2022-11-22T06:18:45.333Z,834.93
2022-11-22T06:19:45.303Z,835.03
2022-11-22T06:20:45.285Z,834.99
2022-11-22T06:21:45.272Z,835.05
2022-11-22T06:22:45.319Z,835.01
2022-11-22T06:23:45.263Z,834.98
2022-11-22T06:24:45.238Z,835.04
2022-11-22T06:25:45.334Z,835.00
2022-11-22T06:26:45.219Z,835.11
2022-11-22T06:27:45.224Z,835.04
2022-11-22T06:28:45.189Z,834.98
2022-11-22T06:29:45.182Z,835.00
2022-11-22T06:30:45.240Z,835.03
2022-11-22T06:31:45.181Z,835.05
2022-11-22T06:32:45.152Z,835.06
2022-11-22T06:33:45.148Z,835.07
2022-11-22T06:34:45.129Z,835.06
2022-11-22T06:35:45.120Z,835.10
2022-11-22T06:36:45.188Z,835.12
2022-11-22T06:37:45.098Z,835.13
2022-11-22T06:38:45.108Z,835.14
2022-11-22T06:39:45.074Z,835.12
2022-11-22T06:40:45.068Z,835.12
2022-11-22T06:41:45.058Z,835.11
2022-11-22T06:42:45.067Z,835.13
2022-11-22T06:43:48.640Z,835.12
2022-11-22T06:44:45.027Z,835.15
2022-11-22T06:45:45.009Z,835.13
2022-11-22T06:46:45.001Z,835.12
2022-11-22T06:47:45.009Z,835.12
2022-11-22T06:48:45.067Z,835.03
2022-11-22T06:49:44.965Z,835.02
2022-11-22T06:50:44.951Z,835.04
2022-11-22T06:51:44.946Z,834.99
2022-11-22T06:52:44.928Z,834.95
2022-11-22T06:53:47.743Z,834.88
2022-11-22T06:54:44.993Z,834.94
2022-11-22T06:55:55.662Z,834.90
2022-11-22T06:56:45.886Z,834.92
2022-11-22T06:57:44.872Z,834.96
2022-11-22T06:58:44.867Z,834.97
2022-11-22T06:59:44.854Z,834.87
2022-11-22T07:00:45.090Z,834.90
2022-11-22T07:01:44.916Z,834.91
2022-11-22T07:02:44.814Z,834.95
2022-11-22T07:03:44.834Z,834.98
2022-11-22T07:05:02.620Z,834.94
2022-11-22T07:05:45.798Z,834.93
2022-11-22T07:06:44.781Z,834.89
2022-11-22T07:07:44.880Z,834.95
2022-11-22T07:08:44.756Z,834.90
2022-11-22T07:09:44.743Z,834.90
2022-11-22T07:10:44.754Z,834.93
2022-11-22T07:11:44.719Z,834.97
2022-11-22T07:12:44.743Z,834.89
2022-11-22T07:13:44.709Z,834.92
2022-11-22T07:14:44.690Z,834.88
2022-11-22T07:15:44.675Z,834.92
2022-11-22T07:16:44.775Z,834.86
2022-11-22T07:17:44.654Z,834.93
2022-11-22T07:18:44.727Z,834.95
2022-11-22T07:19:44.679Z,834.95
2022-11-22T07:20:44.626Z,834.96
2022-11-22T07:21:44.614Z,834.94
2022-11-22T07:22:44.615Z,834.96
2022-11-22T07:23:44.597Z,834.98
2022-11-22T07:24:44.614Z,834.99
2022-11-22T07:25:44.570Z,835.01
2022-11-22T07:26:44.585Z,834.97
2022-11-22T07:27:44.545Z,835.01
2022-11-22T07:28:44.538Z,835.01
2022-11-22T07:29:44.533Z,835.02
2022-11-22T07:30:44.645Z,835.03
2022-11-22T07:31:44.501Z,835.02
2022-11-22T07:32:44.510Z,835.01
2022-11-22T07:33:44.489Z,835.05
2022-11-22T07:34:44.472Z,835.07
2022-11-22T07:35:44.481Z,835.08
2022-11-22T07:36:44.452Z,835.09
2022-11-22T07:37:44.437Z,835.11
2022-11-22T07:38:44.435Z,835.10
2022-11-22T07:39:44.428Z,835.13
2022-11-22T07:40:44.404Z,835.14
2022-11-22T07:41:44.395Z,835.18
2022-11-22T07:42:44.453Z,835.18
2022-11-22T07:43:44.375Z,835.14
2022-11-22T07:44:44.362Z,835.17
2022-11-22T07:45:44.361Z,835.19
2022-11-22T07:46:44.343Z,835.19
2022-11-22T07:47:44.404Z,835.20
2022-11-22T07:48:44.324Z,835.19
2022-11-22T07:49:44.317Z,835.20
2022-11-22T07:50:44.363Z,835.24
2022-11-22T07:51:44.310Z,835.21
2022-11-22T07:52:44.273Z,835.28
2022-11-22T07:53:44.263Z,835.30
2022-11-22T07:54:44.253Z,835.30
2022-11-22T07:55:44.255Z,835.33
2022-11-22T07:56:44.229Z,835.30
2022-11-22T07:57:44.285Z,835.31
2022-11-22T07:58:44.417Z,835.37
2022-11-22T07:59:44.197Z,835.42
2022-11-22T08:00:44.460Z,835.45
2022-11-22T08:01:44.246Z,835.51
2022-11-22T08:02:44.159Z,835.51
2022-11-22T08:03:44.168Z,835.52
2022-11-22T08:04:44.137Z,835.55
2022-11-22T08:05:44.231Z,835.55
2022-11-22T08:06:44.123Z,835.54
2022-11-22T08:07:44.350Z,835.55
2022-11-22T08:08:44.096Z,835.56
2022-11-22T08:09:44.096Z,835.57
2022-11-22T08:10:44.087Z,835.64
2022-11-22T08:11:44.146Z,835.66
2022-11-22T08:12:44.053Z,835.68
2022-11-22T08:13:44.052Z,835.67
2022-11-22T08:14:44.034Z,835.63
2022-11-22T08:15:44.032Z,835.63
2022-11-22T08:16:44.008Z,835.68
2022-11-22T08:17:44.113Z,835.70
2022-11-22T08:18:43.989Z,835.67
2022-11-22T08:19:43.981Z,835.63
2022-11-22T08:20:43.965Z,835.66
2022-11-22T08:21:43.965Z,835.71
2022-11-22T08:22:43.955Z,835.75
2022-11-22T08:23:44.071Z,835.67
2022-11-22T08:24:43.922Z,835.69
2022-11-22T08:25:43.919Z,835.68
2022-11-22T08:26:43.900Z,835.75
2022-11-22T08:27:43.909Z,835.71
2022-11-22T08:28:43.881Z,835.68
2022-11-22T08:29:43.951Z,835.68
2022-11-22T08:30:43.859Z,835.60
2022-11-22T08:31:43.846Z,835.63
2022-11-22T08:32:43.835Z,835.64
2022-11-22T08:33:43.832Z,835.67
2022-11-22T08:34:47.152Z,835.66
2022-11-22T08:35:43.868Z,835.66
2022-11-22T08:36:43.803Z,835.74
2022-11-22T08:37:43.781Z,835.72
2022-11-22T08:38:43.788Z,835.72
2022-11-22T08:39:43.893Z,835.70
2022-11-22T08:40:43.746Z,835.76
2022-11-22T08:41:43.806Z,835.79
2022-11-22T08:42:43.735Z,835.79
2022-11-22T08:43:43.722Z,835.84
2022-11-22T08:44:43.703Z,835.87
2022-11-22T08:45:43.697Z,835.95
2022-11-22T08:46:43.710Z,835.97
2022-11-22T08:47:43.733Z,835.91
2022-11-22T08:48:43.660Z,835.86
2022-11-22T08:49:43.653Z,835.90
2022-11-22T08:50:43.640Z,835.89
2022-11-22T08:51:43.630Z,835.90
2022-11-22T08:52:43.629Z,835.92
2022-11-22T08:53:43.691Z,835.97
2022-11-22T08:54:43.597Z,835.97
2022-11-22T08:55:43.704Z,836.04
2022-11-22T08:56:43.583Z,836.09
2022-11-22T08:57:43.579Z,836.05
2022-11-22T08:58:43.697Z,836.09
2022-11-22T08:59:43.696Z,836.06
2022-11-22T09:00:43.534Z,836.03
2022-11-22T09:01:43.634Z,836.06
2022-11-22T09:02:43.510Z,836.08
2022-11-22T09:03:43.500Z,836.13
2022-11-22T09:04:43.492Z,836.12
2022-11-22T09:08:49.214Z,836.19
2022-11-22T09:09:44.982Z,836.19
2022-11-22T09:10:43.422Z,836.19
2022-11-22T09:11:43.573Z,836.19
2022-11-22T09:12:43.411Z,836.18
2022-11-22T09:13:43.392Z,836.16
2022-11-22T09:14:43.384Z,836.09
2022-11-22T09:15:43.375Z,836.13
2022-11-22T09:16:43.359Z,836.14
2022-11-22T09:17:43.422Z,836.20
2022-11-22T09:18:43.352Z,836.25
2022-11-22T09:19:43.323Z,836.20
2022-11-22T09:20:43.317Z,836.25
2022-11-22T09:21:43.418Z,836.24
2022-11-22T09:22:43.297Z,836.30
2022-11-22T09:23:43.343Z,836.32
2022-11-22T09:24:43.271Z,836.35
2022-11-22T09:25:43.265Z,836.33
2022-11-22T09:26:43.251Z,836.33
2022-11-22T09:27:43.378Z,836.34
2022-11-22T09:28:43.229Z,836.34
2022-11-22T09:29:43.216Z,836.35
2022-11-22T09:30:43.290Z,836.32
2022-11-22T09:31:43.202Z,836.29
2022-11-22T09:32:43.185Z,836.37
2022-11-22T09:33:43.224Z,836.33
2022-11-22T09:34:43.168Z,836.35
2022-11-22T09:35:43.150Z,836.40
2022-11-22T09:36:43.164Z,836.39
2022-11-22T09:37:43.131Z,836.40
2022-11-22T09:38:43.183Z,836.39
2022-11-22T09:39:48.089Z,836.40
2022-11-22T09:40:44.092Z,836.39
2022-11-22T09:41:43.093Z,836.40
2022-11-22T09:42:43.087Z,836.42
2022-11-22T09:43:43.215Z,836.45
2022-11-22T09:44:43.127Z,836.48
2022-11-22T09:45:43.045Z,836.42
2022-11-22T09:46:43.034Z,836.41
2022-11-22T09:47:43.024Z,836.46
2022-11-22T09:48:43.023Z,836.47
2022-11-22T09:49:43.002Z,836.47
2022-11-22T09:50:43.054Z,836.50
2022-11-22T09:51:42.979Z,836.51
2022-11-22T09:52:42.965Z,836.53
2022-11-22T09:53:42.955Z,836.55
2022-11-22T09:54:42.966Z,836.50
2022-11-22T09:55:42.943Z,836.57
2022-11-22T09:56:43.007Z,836.52
2022-11-22T09:57:42.924Z,836.56
2022-11-22T09:58:42.905Z,836.52
2022-11-22T09:59:42.927Z,836.60
2022-11-22T10:00:46.460Z,836.58
2022-11-22T10:01:44.037Z,836.57
2022-11-22T10:02:59.243Z,836.64
2022-11-22T10:03:43.864Z,836.56
2022-11-22T10:04:42.842Z,836.59
2022-11-22T10:05:42.827Z,836.59
2022-11-22T10:06:42.822Z,836.61
2022-11-22T10:07:42.900Z,836.57
2022-11-22T10:08:42.861Z,836.55
2022-11-22T10:09:42.790Z,836.58
2022-11-22T10:10:42.779Z,836.55
2022-11-22T10:11:42.765Z,836.53
2022-11-22T10:12:42.753Z,836.54
2022-11-22T10:13:42.744Z,836.55
2022-11-22T10:14:42.810Z,836.59
2022-11-22T10:15:42.842Z,836.65
2022-11-22T10:16:42.713Z,836.61
2022-11-22T10:17:42.702Z,836.61
2022-11-22T10:18:42.701Z,836.61
2022-11-22T10:19:42.688Z,836.63
2022-11-22T10:20:48.459Z,836.61
2022-11-22T10:21:43.660Z,836.63
2022-11-22T10:22:42.647Z,836.62
2022-11-22T10:23:42.639Z,836.62
2022-11-22T10:24:42.629Z,836.58
2022-11-22T10:25:42.623Z,836.59
2022-11-22T10:26:42.660Z,836.63
2022-11-22T10:27:42.598Z,836.65
2022-11-22T10:28:42.579Z,836.59
2022-11-22T10:29:42.568Z,836.58
2022-11-22T10:30:42.561Z,836.62
2022-11-22T10:31:42.682Z,836.58
2022-11-22T10:32:42.604Z,836.52
2022-11-22T10:33:44.583Z,836.49
2022-11-22T10:34:42.528Z,836.49
2022-11-22T10:35:42.508Z,836.51
2022-11-22T10:36:42.509Z,836.47
2022-11-22T10:37:42.485Z,836.36
2022-11-22T10:38:42.476Z,836.36
2022-11-22T10:39:42.464Z,836.38
2022-11-22T10:40:42.617Z,836.33
2022-11-22T10:41:42.445Z,836.31
2022-11-22T10:42:42.430Z,836.29
2022-11-22T10:43:42.416Z,836.26
2022-11-22T10:44:42.414Z,836.23
2022-11-22T10:45:42.398Z,836.26
2022-11-22T10:46:42.487Z,836.24
2022-11-22T10:47:42.493Z,836.23
2022-11-22T10:48:42.371Z,836.22
2022-11-22T10:49:42.356Z,836.23
2022-11-22T10:50:42.352Z,836.19
2022-11-22T10:51:42.335Z,836.22
2022-11-22T10:52:42.330Z,836.24
2022-11-22T10:53:42.307Z,836.22
2022-11-22T10:54:42.302Z,836.27
2022-11-22T10:55:42.289Z,836.30
2022-11-22T10:56:49.816Z,836.30
2022-11-22T10:57:49.808Z,836.35
2022-11-22T10:58:42.265Z,836.35
2022-11-22T10:59:42.250Z,836.42
2022-11-22T11:00:42.279Z,836.34
2022-11-22T11:01:49.767Z,836.37
2022-11-22T11:02:49.885Z,836.48
2022-11-22T11:03:49.741Z,836.42
2022-11-22T11:04:42.196Z,836.34
2022-11-22T11:06:15.675Z,836.39
2022-11-22T11:07:10.653Z,836.36
2022-11-22T11:07:43.190Z,836.43
2022-11-22T11:09:23.494Z,836.38
2022-11-22T11:10:43.205Z,836.40
2022-11-22T11:11:42.133Z,836.38
2022-11-22T11:12:42.200Z,836.39
2022-11-22T11:13:42.101Z,836.38
2022-11-22T11:14:42.096Z,836.44
2022-11-22T11:15:42.074Z,836.43
2022-11-22T11:16:42.065Z,836.35
2022-11-22T11:17:42.051Z,836.38
2022-11-22T11:18:42.161Z,836.40
2022-11-22T11:19:42.028Z,836.43
2022-11-22T11:20:42.259Z,836.37
2022-11-22T11:21:42.010Z,836.27
2022-11-22T11:23:13.162Z,836.34
2022-11-22T11:23:42.986Z,836.34
2022-11-22T11:24:41.985Z,836.37
2022-11-22T11:25:42.063Z,836.33
2022-11-22T11:26:41.968Z,836.31
2022-11-22T11:27:41.948Z,836.31
2022-11-22T11:28:42.023Z,836.28
2022-11-22T11:29:41.924Z,836.28
2022-11-22T11:30:41.908Z,836.31
2022-11-22T11:31:41.913Z,836.27
2022-11-22T11:32:41.888Z,836.26
2022-11-22T11:33:41.941Z,836.27
2022-11-22T11:34:42.047Z,836.20
2022-11-22T11:35:41.860Z,836.18
2022-11-22T11:36:41.861Z,836.14
2022-11-22T11:37:41.836Z,836.21
2022-11-22T11:38:41.820Z,836.17
2022-11-22T11:39:44.703Z,836.13
2022-11-22T11:40:41.806Z,836.19
2022-11-22T11:41:43.601Z,836.23
2022-11-22T11:42:41.782Z,836.16
2022-11-22T11:43:41.778Z,836.24
2022-11-22T11:44:41.764Z,836.29
2022-11-22T11:45:41.820Z,836.23
2022-11-22T11:46:41.745Z,836.28
2022-11-22T11:47:41.738Z,836.24
2022-11-22T11:48:41.722Z,836.27
2022-11-22T11:49:41.710Z,836.28
2022-11-22T11:50:41.822Z,836.24
2022-11-22T11:51:41.753Z,836.23
2022-11-22T11:52:41.674Z,836.19
2022-11-22T11:53:41.677Z,836.23
2022-11-22T11:54:41.657Z,836.21
2022-11-22T11:55:41.646Z,836.18
2022-11-22T11:56:41.644Z,836.26
2022-11-22T11:57:41.677Z,836.24
2022-11-22T11:58:41.614Z,836.27
2022-11-22T11:59:41.609Z,836.20
2022-11-22T12:00:41.593Z,836.20
2022-11-22T12:01:41.580Z,836.16
2022-11-22T12:02:41.690Z,836.15
2022-11-22T12:03:41.667Z,836.20
2022-11-22T12:04:41.548Z,836.16
2022-11-22T12:05:41.542Z,836.17
2022-11-22T12:06:41.659Z,836.12
2022-11-22T12:07:41.616Z,836.13
2022-11-22T12:08:41.511Z,836.16
2022-11-22T12:09:41.517Z,836.20
2022-11-22T12:10:41.481Z,836.19
2022-11-22T12:11:41.476Z,836.23
2022-11-22T12:12:41.479Z,836.23
2022-11-22T12:14:04.621Z,836.23
2022-11-22T12:15:09.198Z,836.23
2022-11-22T12:15:42.515Z,836.22
2022-11-22T12:16:41.417Z,836.22
2022-11-22T12:17:41.407Z,836.25
2022-11-22T12:18:41.431Z,836.30
2022-11-22T12:19:41.394Z,836.27
2022-11-22T12:20:41.378Z,836.27
2022-11-22T12:21:41.386Z,836.25
2022-11-22T12:22:50.242Z,836.29
2022-11-22T12:23:46.595Z,836.29
2022-11-22T12:24:52.595Z,836.28
2022-11-22T12:25:42.320Z,836.24
2022-11-22T12:26:41.323Z,836.23
2022-11-22T12:27:41.380Z,836.24
2022-11-22T12:28:41.289Z,836.22
2022-11-22T12:29:41.276Z,836.20
2022-11-22T12:30:41.281Z,836.15
2022-11-22T12:31:41.257Z,836.20
2022-11-22T12:32:41.250Z,836.21